createdAt,value
2018-09-04T00:00:02.121Z,89.75
2018-09-04T00:02:32.505Z,89.57
2018-09-04T00:05:02.699Z,89.23
2018-09-04T00:07:33.960Z,89.34
2018-09-04T00:10:05.654Z,89.06
2018-09-04T00:12:37.303Z,89.26
2018-09-04T00:15:07.943Z,89.12
2018-09-04T00:17:39.789Z,88.98
2018-09-04T00:20:11.233Z,89.26
2018-09-04T00:22:41.425Z,89.14
2018-09-04T00:25:13.314Z,88.76
2018-09-04T00:27:49.009Z,88.61
2018-09-04T00:30:21.293Z,89.20
2018-09-04T00:32:52.401Z,88.82
2018-09-04T00:35:25.705Z,88.69
2018-09-04T00:37:55.635Z,88.47
2018-09-04T00:40:27.196Z,89.33
2018-09-04T00:42:59.912Z,89.14
2018-09-04T00:45:33.392Z,90.05
2018-09-04T00:48:05.783Z,90.00
2018-09-04T00:50:38.479Z,89.28
2018-09-04T00:53:09.962Z,89.27
2018-09-04T00:55:43.420Z,88.96
2018-09-04T00:58:16.086Z,89.39
2018-09-04T01:00:48.335Z,88.86
2018-09-04T01:03:20.912Z,89.51
2018-09-04T01:05:52.934Z,88.75
2018-09-04T01:08:26.099Z,88.72
2018-09-04T01:10:58.267Z,89.32
2018-09-04T01:13:31.486Z,89.73
2018-09-04T01:16:02.170Z,88.77
2018-09-04T01:18:34.559Z,89.26
2018-09-04T01:21:05.195Z,89.49
2018-09-04T01:23:37.114Z,88.67
2018-09-04T01:26:08.175Z,89.35
2018-09-04T01:28:38.242Z,88.99
2018-09-04T01:31:09.907Z,88.75
2018-09-04T01:33:43.763Z,88.73
2018-09-04T01:36:14.482Z,89.79
2018-09-04T01:38:45.644Z,89.30
2018-09-04T01:41:18.165Z,89.74
2018-09-04T01:43:50.130Z,90.28
2018-09-04T01:46:22.423Z,90.28
2018-09-04T01:48:55.780Z,91.21
2018-09-04T01:51:27.530Z,90.50
2018-09-04T01:53:57.869Z,90.64
2018-09-04T01:56:28.625Z,90.71
2018-09-04T01:59:00.211Z,90.75
2018-09-04T02:01:32.414Z,89.71
2018-09-04T02:04:04.889Z,89.62
2018-09-04T02:06:36.662Z,89.86
2018-09-04T02:09:10.683Z,89.78
2018-09-04T02:11:42.919Z,89.12
2018-09-04T02:14:14.415Z,89.15
2018-09-04T02:16:45.768Z,89.08
2018-09-04T02:19:18.199Z,88.84
2018-09-04T02:21:52.877Z,88.90
2018-09-04T02:24:25.306Z,89.08
2018-09-04T02:26:57.478Z,87.97
2018-09-04T02:29:29.000Z,88.58
2018-09-04T02:31:59.458Z,87.88
2018-09-04T02:34:31.128Z,87.44
2018-09-04T02:37:02.454Z,88.15
2018-09-04T02:39:33.824Z,87.53
2018-09-04T02:42:06.562Z,87.57
2018-09-04T02:44:40.711Z,87.74
2018-09-04T02:47:14.029Z,88.44
2018-09-04T02:49:45.347Z,88.56
2018-09-04T02:52:18.233Z,89.55
2018-09-04T02:54:49.810Z,89.31
2018-09-04T02:57:21.006Z,89.03
2018-09-04T02:59:51.088Z,89.27
2018-09-04T03:02:21.687Z,89.53
2018-09-04T03:04:52.807Z,90.02
2018-09-04T03:07:27.534Z,90.13
2018-09-04T03:10:00.421Z,90.41
2018-09-04T03:12:31.551Z,90.35
2018-09-04T03:15:03.156Z,90.91
2018-09-04T03:17:33.890Z,90.70
2018-09-04T03:20:04.056Z,91.50
2018-09-04T03:22:34.202Z,90.76
2018-09-04T03:25:04.518Z,90.69
2018-09-04T03:27:35.545Z,90.58
2018-09-04T03:30:10.059Z,90.42
2018-09-04T03:32:43.546Z,90.61
2018-09-04T03:35:14.599Z,90.91
2018-09-04T03:37:44.742Z,90.91
2018-09-04T03:40:15.068Z,90.67
2018-09-04T03:42:45.013Z,91.08
2018-09-04T03:45:15.030Z,91.75
2018-09-04T03:47:45.209Z,91.56
2018-09-04T03:50:15.596Z,92.24
2018-09-04T03:52:46.655Z,91.98
2018-09-04T03:55:17.839Z,91.83
2018-09-04T03:57:48.016Z,91.24
2018-09-04T04:00:18.849Z,90.88
2018-09-04T04:02:48.904Z,91.04
2018-09-04T04:05:18.931Z,91.38
2018-09-04T04:07:51.426Z,91.50
2018-09-04T04:10:23.528Z,91.11
2018-09-04T04:12:54.833Z,91.18
2018-09-04T04:15:25.320Z,91.70
2018-09-04T04:17:56.111Z,91.89
2018-09-04T04:20:26.559Z,91.16
2018-09-04T04:22:57.320Z,90.97
2018-09-04T04:25:27.264Z,91.09
2018-09-04T04:27:57.277Z,89.98
2018-09-04T04:30:27.569Z,90.63
2018-09-04T04:32:58.278Z,90.10
2018-09-04T04:35:28.667Z,90.77
2018-09-04T04:37:58.423Z,89.84
2018-09-04T04:40:29.987Z,90.16
2018-09-04T04:43:01.109Z,90.13
2018-09-04T04:45:33.378Z,89.71
2018-09-04T04:48:03.992Z,90.21
2018-09-04T04:50:34.263Z,90.73
2018-09-04T04:53:04.281Z,90.01
2018-09-04T04:55:35.615Z,90.59
2018-09-04T04:58:06.018Z,90.44
2018-09-04T05:00:35.765Z,89.86
2018-09-04T05:03:06.312Z,89.71
2018-09-04T05:05:37.288Z,89.33
2018-09-04T05:08:07.572Z,89.98
2018-09-04T05:10:43.134Z,89.65
2018-09-04T05:13:23.321Z,90.08
2018-09-04T05:16:01.120Z,89.98
2018-09-04T05:18:34.328Z,89.94
2018-09-04T05:21:04.731Z,90.53
2018-09-04T05:23:39.159Z,89.82
2018-09-04T05:26:09.747Z,89.56
2018-09-04T05:28:40.992Z,89.76
2018-09-04T05:31:11.626Z,90.15
2018-09-04T05:33:44.354Z,89.93
2018-09-04T05:36:16.097Z,90.18
2018-09-04T05:38:45.998Z,89.58
2018-09-04T05:41:21.603Z,89.99
2018-09-04T05:43:58.087Z,89.84
2018-09-04T05:46:38.102Z,89.92
2018-09-04T05:49:08.906Z,89.00
2018-09-04T05:51:39.067Z,88.84
2018-09-04T05:54:13.450Z,89.34
2018-09-04T05:56:43.972Z,89.17
2018-09-04T05:59:14.452Z,89.01
2018-09-04T06:01:45.223Z,87.94
2018-09-04T06:04:15.381Z,88.16
2018-09-04T06:06:47.356Z,87.58
2018-09-04T06:09:17.421Z,86.97
2018-09-04T06:11:49.537Z,87.86
2018-09-04T06:14:19.354Z,87.37
2018-09-04T06:16:49.323Z,86.60
2018-09-04T06:19:21.733Z,86.16
2018-09-04T06:21:53.530Z,86.22
2018-09-04T06:24:24.462Z,86.09
2018-09-04T06:26:54.866Z,85.52
2018-09-04T06:29:25.093Z,85.35
2018-09-04T06:31:55.934Z,85.87
2018-09-04T06:34:26.772Z,85.21
2018-09-04T06:36:58.365Z,83.70
2018-09-04T06:39:30.166Z,82.94
2018-09-04T06:42:00.449Z,82.12
2018-09-04T06:44:31.176Z,82.44
2018-09-04T06:47:02.717Z,82.21
2018-09-04T06:49:33.909Z,82.83
2018-09-04T06:52:04.437Z,82.73
2018-09-04T06:54:36.032Z,81.90
2018-09-04T06:57:06.090Z,81.97
2018-09-04T07:02:07.519Z,82.16
2018-09-04T07:04:37.392Z,80.93
2018-09-04T07:07:07.366Z,81.67
2018-09-04T07:09:37.356Z,81.31
2018-09-04T07:12:07.212Z,81.34
2018-09-04T07:14:37.326Z,81.96
2018-09-04T07:17:07.879Z,81.33
2018-09-04T07:19:38.540Z,81.06
2018-09-04T07:22:09.374Z,81.60
2018-09-04T07:24:39.657Z,81.07
2018-09-04T07:27:09.723Z,80.97
2018-09-04T07:29:40.473Z,80.03
2018-09-04T07:32:11.004Z,79.30
2018-09-04T07:34:41.455Z,78.99
2018-09-04T07:37:11.295Z,78.45
2018-09-04T07:39:41.564Z,77.77
2018-09-04T07:42:11.706Z,78.26
2018-09-04T07:44:41.755Z,77.18
2018-09-04T07:47:13.228Z,78.47
2018-09-04T07:49:43.040Z,77.75
2018-09-04T07:52:13.023Z,77.30
2018-09-04T07:54:43.543Z,77.60
2018-09-04T07:57:13.861Z,76.36
2018-09-04T07:59:43.651Z,74.98
2018-09-04T08:02:14.268Z,75.60
2018-09-04T08:04:44.059Z,74.73
2018-09-04T08:07:14.527Z,74.94
2018-09-04T08:09:44.914Z,73.50
2018-09-04T08:12:14.876Z,72.82
2018-09-04T08:14:44.858Z,72.21
2018-09-04T08:17:15.318Z,71.65
2018-09-04T08:19:45.810Z,71.50
2018-09-04T08:22:15.776Z,71.47
2018-09-04T08:24:46.412Z,70.31
2018-09-04T08:27:17.304Z,69.66
2018-09-04T08:29:47.447Z,70.09
2018-09-04T08:32:18.612Z,68.63
2018-09-04T08:34:48.619Z,69.11
2018-09-04T08:37:21.322Z,68.29
2018-09-04T08:39:53.307Z,68.23
2018-09-04T08:42:24.628Z,68.32
2018-09-04T08:44:58.280Z,67.63
2018-09-04T08:47:30.189Z,67.16
2018-09-04T08:50:03.447Z,67.60
2018-09-04T08:52:34.232Z,67.37
2018-09-04T08:55:07.157Z,66.97
2018-09-04T08:57:38.264Z,67.23
2018-09-04T09:00:11.416Z,66.69
2018-09-04T09:02:41.544Z,65.53
2018-09-04T09:05:13.231Z,65.30
2018-09-04T09:07:43.259Z,65.12
2018-09-04T09:10:13.236Z,65.19
2018-09-04T09:12:44.860Z,65.94
2018-09-04T09:15:14.861Z,65.68
2018-09-04T09:17:45.238Z,65.49
2018-09-04T09:20:16.297Z,65.76
2018-09-04T09:22:46.581Z,65.10
2018-09-04T09:25:17.029Z,65.13
2018-09-04T09:27:48.024Z,65.11
2018-09-04T09:30:19.341Z,65.07
2018-09-04T09:32:50.115Z,64.26
2018-09-04T09:35:20.241Z,64.14
2018-09-04T09:37:50.999Z,64.41
2018-09-04T09:40:21.366Z,64.47
2018-09-04T09:42:52.620Z,64.88
2018-09-04T09:45:23.460Z,64.11
2018-09-04T09:47:54.180Z,63.71
2018-09-04T09:50:24.192Z,65.17
2018-09-04T09:52:54.572Z,65.01
2018-09-04T09:55:26.102Z,63.97
2018-09-04T09:57:56.153Z,63.09
2018-09-04T10:00:31.723Z,62.87
2018-09-04T10:03:06.483Z,63.60
2018-09-04T10:05:36.499Z,62.97
2018-09-04T10:08:06.916Z,62.55
2018-09-04T10:10:39.418Z,62.64
2018-09-04T10:13:09.500Z,62.22
2018-09-04T10:15:40.064Z,62.58
2018-09-04T10:18:10.895Z,62.14
2018-09-04T10:20:42.743Z,62.28
2018-09-04T10:23:14.731Z,61.70
2018-09-04T10:25:45.987Z,61.74
2018-09-04T10:28:18.285Z,60.89
2018-09-04T10:30:49.515Z,60.97
2018-09-04T10:33:19.507Z,60.21
2018-09-04T10:35:49.599Z,59.76
2018-09-04T10:38:25.118Z,59.47
2018-09-04T10:41:05.054Z,60.31
2018-09-04T10:43:36.513Z,59.51
2018-09-04T10:46:17.191Z,60.36
2018-09-04T10:48:47.975Z,60.12
2018-09-04T10:51:19.819Z,60.02
2018-09-04T10:53:50.649Z,58.62
2018-09-04T10:56:23.001Z,57.97
2018-09-04T10:58:53.868Z,58.19
2018-09-04T11:01:25.930Z,58.99
2018-09-04T11:03:58.014Z,59.36
2018-09-04T11:06:28.436Z,58.50
2018-09-04T11:09:00.509Z,57.22
2018-09-04T11:11:32.701Z,56.67
2018-09-04T11:14:04.473Z,55.79
2018-09-04T11:16:35.086Z,56.21
2018-09-04T11:19:05.155Z,57.04
2018-09-04T11:21:35.520Z,55.19
2018-09-04T11:33:14.698Z,54.25
2018-09-04T11:35:47.045Z,54.62
2018-09-04T11:38:19.776Z,53.69
2018-09-04T11:40:54.536Z,54.44
2018-09-04T11:43:27.208Z,53.31
2018-09-04T11:46:06.656Z,51.92
2018-09-04T11:48:40.448Z,52.87
2018-09-04T11:51:12.857Z,53.12
2018-09-04T11:53:43.871Z,51.69
2018-09-04T11:56:18.958Z,52.11
2018-09-04T11:58:49.334Z,52.57
2018-09-04T12:01:21.849Z,51.80
2018-09-04T12:03:53.408Z,50.57
2018-09-04T12:06:23.563Z,51.49
2018-09-04T12:08:54.900Z,50.51
2018-09-04T12:11:26.018Z,49.36
2018-09-04T12:13:56.309Z,48.16
2018-09-04T12:16:28.554Z,47.47
2018-09-04T12:19:02.081Z,46.57
2018-09-04T12:21:32.306Z,45.52
2018-09-04T12:24:02.128Z,46.77
2018-09-04T12:26:32.533Z,47.57
2018-09-04T12:29:02.952Z,47.03
2018-09-04T12:31:32.902Z,47.70
2018-09-04T12:34:03.256Z,46.71
2018-09-04T12:36:34.693Z,46.00
2018-09-04T12:39:05.930Z,46.60
2018-09-04T12:41:36.598Z,45.43
2018-09-04T12:44:07.256Z,44.23
2018-09-04T12:46:37.656Z,44.26
2018-09-04T12:49:07.859Z,43.26
2018-09-04T12:51:37.637Z,43.92
2018-09-04T12:54:08.011Z,43.13
2018-09-04T12:56:40.136Z,43.89
2018-09-04T12:59:10.131Z,43.57
2018-09-04T13:01:40.738Z,43.30
2018-09-04T13:04:11.712Z,43.70
2018-09-04T13:06:41.927Z,44.15
2018-09-04T13:09:12.454Z,43.86
2018-09-04T13:11:42.912Z,41.90
2018-09-04T13:14:16.227Z,42.75
2018-09-04T13:16:46.417Z,42.18
2018-09-04T13:19:19.579Z,42.58
2018-09-04T13:21:50.299Z,43.11
2018-09-04T13:24:21.545Z,42.85
2018-09-04T13:26:51.676Z,41.75
2018-09-04T13:29:23.665Z,41.15
2018-09-04T13:31:55.593Z,41.06
2018-09-04T13:34:26.119Z,41.27
2018-09-04T13:36:57.620Z,42.38
2018-09-04T13:39:28.903Z,41.23
2018-09-04T13:42:02.099Z,42.39
2018-09-04T13:47:13.957Z,40.68
2018-09-04T13:49:47.652Z,39.23
2018-09-04T13:52:21.587Z,38.67
2018-09-04T13:54:57.241Z,37.93
2018-09-04T13:57:35.470Z,39.20
2018-09-04T14:00:09.113Z,38.28
2018-09-04T14:02:44.636Z,38.45
2018-09-04T14:05:17.744Z,38.63
2018-09-04T14:07:48.287Z,39.33
2018-09-04T14:10:20.021Z,37.66
2018-09-04T14:12:50.380Z,38.51
2018-09-04T14:16:24.386Z,38.95
2018-09-04T14:18:56.934Z,38.46
2018-09-04T14:21:29.184Z,38.06
2018-09-04T14:24:03.805Z,37.08
2018-09-04T14:26:34.958Z,37.55
2018-09-04T14:29:10.505Z,37.16
2018-09-04T14:31:43.863Z,37.16
2018-09-04T14:34:17.136Z,37.38
2018-09-04T14:36:48.133Z,38.33
2018-09-04T14:39:33.445Z,37.54
2018-09-04T14:42:14.066Z,38.37
2018-09-04T14:44:55.682Z,38.08
2018-09-04T14:50:12.311Z,37.17
2018-09-04T14:52:43.952Z,37.09
2018-09-04T14:55:16.649Z,37.34
2018-09-04T14:57:51.109Z,37.16
2018-09-04T15:00:30.692Z,37.00
2018-09-04T15:03:13.721Z,36.38
2018-09-04T15:05:54.584Z,36.71
2018-09-04T15:08:25.764Z,37.14
2018-09-04T15:10:59.112Z,36.93
2018-09-04T15:13:33.094Z,36.59
2018-09-04T15:16:04.685Z,35.90
2018-09-04T15:18:38.357Z,35.81
2018-09-04T15:21:09.594Z,35.82
2018-09-04T15:23:42.549Z,35.02
2018-09-04T15:26:17.222Z,35.37
2018-09-04T15:28:48.047Z,36.51
2018-09-04T15:31:19.317Z,36.04
2018-09-04T15:33:49.796Z,35.84
2018-09-04T15:36:20.962Z,35.58
2018-09-04T15:38:51.113Z,36.11
2018-09-04T15:41:22.438Z,36.81
2018-09-04T15:43:53.527Z,37.48
2018-09-04T15:46:24.801Z,37.89
2018-09-04T15:49:02.791Z,37.61
2018-09-04T15:51:38.007Z,37.73
2018-09-04T15:54:11.889Z,37.11
2018-09-04T15:56:46.206Z,36.53
2018-09-04T15:59:18.191Z,36.22
2018-09-04T16:01:49.622Z,36.60
2018-09-04T16:04:21.642Z,36.37
2018-09-04T16:06:53.017Z,35.75
2018-09-04T16:09:28.489Z,37.90
2018-09-04T16:12:01.385Z,37.00
2018-09-04T16:14:32.813Z,37.32
2018-09-04T16:17:05.011Z,38.24
2018-09-04T16:19:39.575Z,38.51
2018-09-04T16:22:12.113Z,38.47
2018-09-04T16:24:44.841Z,38.80
2018-09-04T16:27:20.880Z,38.26
2018-09-04T16:29:52.089Z,38.34
2018-09-04T16:32:25.436Z,39.08
2018-09-04T16:34:56.804Z,39.76
2018-09-04T16:37:31.746Z,39.31
2018-09-04T16:40:05.413Z,40.45
2018-09-04T16:42:36.073Z,41.31
2018-09-04T16:45:12.104Z,40.14
2018-09-04T16:47:42.763Z,39.94
2018-09-04T16:50:14.637Z,40.87
2018-09-04T16:52:45.331Z,40.38
2018-09-04T16:55:17.659Z,41.24
2018-09-04T16:57:49.085Z,40.79
2018-09-04T17:00:23.264Z,42.25
2018-09-04T17:02:55.913Z,42.84
2018-09-04T17:05:28.682Z,42.41
2018-09-04T17:08:00.994Z,42.70
2018-09-04T17:10:32.000Z,43.13
2018-09-04T17:13:05.620Z,44.68
2018-09-04T17:15:37.718Z,44.65
2018-09-04T17:18:09.797Z,44.50
2018-09-04T17:20:40.747Z,45.28
2018-09-04T17:23:10.660Z,45.75
2018-09-04T17:25:40.473Z,46.34
2018-09-04T17:28:13.786Z,46.59
2018-09-04T17:30:44.026Z,47.31
2018-09-04T17:33:14.973Z,48.36
2018-09-04T17:35:45.754Z,47.83
2018-09-04T17:38:17.384Z,48.79
2018-09-04T17:40:48.554Z,48.97
2018-09-04T17:43:20.084Z,50.72
2018-09-04T17:45:50.433Z,47.71
2018-09-04T17:48:21.174Z,48.83
2018-09-04T17:50:53.238Z,47.58
2018-09-04T17:53:23.699Z,46.55
2018-09-04T17:55:54.048Z,47.28
2018-09-04T17:59:26.330Z,46.42
2018-09-04T18:01:56.574Z,47.43
2018-09-04T18:04:28.183Z,47.56
2018-09-04T18:06:59.433Z,48.17
2018-09-04T18:09:30.283Z,48.71
2018-09-04T18:12:00.651Z,50.11
2018-09-04T18:14:31.616Z,50.70
2018-09-04T18:17:03.736Z,50.83
2018-09-04T18:19:34.788Z,51.16
2018-09-04T18:22:05.369Z,51.46
2018-09-04T18:24:36.920Z,52.34
2018-09-04T18:27:09.971Z,52.94
2018-09-04T18:29:40.730Z,53.63
2018-09-04T18:32:12.211Z,53.77
2018-09-04T18:34:42.388Z,54.75
2018-09-04T18:37:13.729Z,54.76
2018-09-04T18:39:44.259Z,55.32
2018-09-04T18:42:14.261Z,55.58
2018-09-04T18:44:44.590Z,55.81
2018-09-04T18:47:14.880Z,56.48
2018-09-04T18:49:46.106Z,56.87
2018-09-04T18:52:18.302Z,56.90
2018-09-04T18:54:48.626Z,57.14
2018-09-04T18:57:21.152Z,57.76
2018-09-04T18:59:51.458Z,58.05
2018-09-04T19:02:21.905Z,57.97
2018-09-04T19:04:52.198Z,58.38
2018-09-04T19:07:24.319Z,58.59
2018-09-04T19:09:55.100Z,59.03
2018-09-04T19:12:27.455Z,59.19
2018-09-04T19:14:57.473Z,60.44
2018-09-04T19:17:30.141Z,60.27
2018-09-04T19:20:03.109Z,60.74
2018-09-04T19:22:32.957Z,61.39
2018-09-04T19:25:04.304Z,61.75
2018-09-04T19:27:34.844Z,62.34
2018-09-04T19:30:05.641Z,63.08
2018-09-04T19:32:36.025Z,63.65
2018-09-04T19:35:10.270Z,63.71
2018-09-04T19:37:43.087Z,63.05
2018-09-04T19:40:14.098Z,64.40
2018-09-04T19:42:45.015Z,64.52
2018-09-04T19:45:16.606Z,65.08
2018-09-04T19:47:46.615Z,64.61
2018-09-04T19:50:16.856Z,65.03
2018-09-04T19:52:48.153Z,64.98
2018-09-04T19:55:18.338Z,65.42
2018-09-04T19:57:48.745Z,65.62
2018-09-04T20:00:19.924Z,65.67
2018-09-04T20:02:50.545Z,66.10
2018-09-04T20:05:21.398Z,66.33
2018-09-04T20:07:54.646Z,66.83
2018-09-04T20:10:26.176Z,67.43
2018-09-04T20:12:56.464Z,67.44
2018-09-04T20:15:27.659Z,67.46
2018-09-04T20:18:00.809Z,66.67
2018-09-04T20:20:32.603Z,67.51
2018-09-04T20:23:05.964Z,67.36
2018-09-04T20:25:36.815Z,67.33
2018-09-04T20:28:08.352Z,67.51
2018-09-04T20:30:38.412Z,67.16
2018-09-04T20:33:09.046Z,67.25
2018-09-04T20:35:39.784Z,67.24
2018-09-04T20:38:12.884Z,66.85
2018-09-04T20:40:47.477Z,66.78
2018-09-04T20:43:19.153Z,66.77
2018-09-04T20:45:50.364Z,67.03
2018-09-04T20:48:22.309Z,66.99
2018-09-04T20:50:53.940Z,66.95
2018-09-04T20:53:24.857Z,66.92
2018-09-04T20:55:56.111Z,67.52
2018-09-04T20:58:38.042Z,67.73
2018-09-04T21:01:19.226Z,67.28
2018-09-04T21:04:00.342Z,68.46
2018-09-04T21:06:42.639Z,68.02
2018-09-04T21:09:23.679Z,68.40
2018-09-04T21:11:54.951Z,68.44
2018-09-04T21:14:25.835Z,69.08
2018-09-04T21:16:56.363Z,69.17
2018-09-04T21:19:26.824Z,68.74
2018-09-04T21:21:57.568Z,69.71
2018-09-04T21:24:28.871Z,69.16
2018-09-04T21:27:00.600Z,69.35
2018-09-04T21:29:31.988Z,70.40
2018-09-04T21:32:02.566Z,70.20
2018-09-04T21:34:33.752Z,69.82
2018-09-04T21:37:04.076Z,70.14
2018-09-04T21:39:35.107Z,70.35
2018-09-04T21:42:07.940Z,70.48
2018-09-04T21:44:38.218Z,71.07
2018-09-04T21:47:10.304Z,70.89
2018-09-04T21:49:40.284Z,71.18
2018-09-04T21:52:10.318Z,70.68
2018-09-04T21:54:40.277Z,71.12
2018-09-04T21:57:11.789Z,72.00
2018-09-04T21:59:41.858Z,71.82
2018-09-04T22:02:13.120Z,71.46
2018-09-04T22:04:44.049Z,72.09
2018-09-04T22:07:14.252Z,71.58
2018-09-04T22:09:45.108Z,71.61
2018-09-04T22:12:15.540Z,71.91
2018-09-04T22:14:45.390Z,71.50
2018-09-04T22:17:17.285Z,71.93
2018-09-04T22:19:47.584Z,71.41
2018-09-04T22:22:17.942Z,71.72
2018-09-04T22:24:48.248Z,72.45
2018-09-04T22:27:19.334Z,72.06
2018-09-04T22:29:49.763Z,72.76
2018-09-04T22:32:19.988Z,72.94
2018-09-04T22:34:50.046Z,73.00
2018-09-04T22:37:20.699Z,73.90
2018-09-04T22:39:50.962Z,73.38
2018-09-04T22:42:21.543Z,73.89
2018-09-04T22:44:52.957Z,73.65
2018-09-04T22:47:23.803Z,73.55
2018-09-04T22:49:59.344Z,73.55
2018-09-04T22:52:32.372Z,74.22
2018-09-04T22:55:05.336Z,74.44
2018-09-04T22:57:36.783Z,74.77
2018-09-04T23:02:36.435Z,75.30
2018-09-04T23:05:06.791Z,74.28
2018-09-04T23:07:37.921Z,74.87
2018-09-04T23:10:08.160Z,75.17
2018-09-04T23:12:38.994Z,75.42
2018-09-04T23:15:09.737Z,75.37
2018-09-04T23:17:40.035Z,74.69
2018-09-04T23:20:11.155Z,74.52
2018-09-04T23:22:41.552Z,74.81
2018-09-04T23:25:11.398Z,75.32
2018-09-04T23:27:41.713Z,74.86
2018-09-04T23:30:11.944Z,75.95
2018-09-04T23:32:42.362Z,76.24
2018-09-04T23:35:13.411Z,76.29
2018-09-04T23:37:43.192Z,76.66
2018-09-04T23:40:14.409Z,76.67
2018-09-04T23:42:44.876Z,76.00
2018-09-04T23:45:15.995Z,76.90
2018-09-04T23:47:46.181Z,76.37
2018-09-04T23:50:16.461Z,76.35
2018-09-04T23:52:46.525Z,76.24
2018-09-04T23:55:16.316Z,76.40
2018-09-04T23:57:46.515Z,76.56
